createdAt,value
2022-08-05T00:00:50.570Z,23.02
2022-08-05T00:01:50.432Z,22.98
2022-08-05T00:02:51.611Z,23.03
2022-08-05T00:03:50.321Z,22.90
2022-08-05T00:04:55.306Z,22.87
2022-08-05T00:06:05.365Z,22.83
2022-08-05T00:06:51.764Z,22.90
2022-08-05T00:08:00.336Z,22.77
2022-08-05T00:08:51.281Z,22.73
2022-08-05T00:09:50.295Z,22.78
2022-08-05T00:10:50.340Z,22.73
2022-08-05T00:11:55.890Z,22.75
2022-08-05T00:12:56.466Z,22.70
2022-08-05T00:13:52.985Z,22.70
2022-08-05T00:14:51.892Z,22.65
2022-08-05T00:15:55.043Z,22.75
2022-08-05T00:16:52.497Z,22.70
2022-08-05T00:17:50.203Z,22.69
2022-08-05T00:18:50.212Z,22.77
2022-08-05T00:20:01.825Z,22.70
2022-08-05T00:20:51.178Z,22.66
2022-08-05T00:21:50.217Z,22.77
2022-08-05T00:22:57.453Z,22.66
2022-08-05T00:23:53.658Z,22.77
2022-08-05T00:24:55.005Z,22.78
2022-08-05T00:25:50.134Z,22.87
2022-08-05T00:26:51.954Z,22.96
2022-08-05T00:27:50.125Z,22.85
2022-08-05T00:28:50.117Z,22.84
2022-08-05T00:29:50.103Z,22.81
2022-08-05T00:30:52.036Z,22.88
2022-08-05T00:32:10.562Z,22.85
2022-08-05T00:32:51.076Z,22.75
2022-08-05T00:34:55.264Z,22.81
2022-08-05T00:35:04.654Z,22.85
2022-08-05T00:36:16.516Z,22.87
2022-08-05T00:37:10.727Z,22.98
2022-08-05T00:37:53.965Z,22.83
2022-08-05T00:38:50.024Z,22.88
2022-08-05T00:39:58.011Z,22.91
2022-08-05T00:40:53.210Z,22.88
2022-08-05T00:41:54.894Z,22.78
2022-08-05T00:42:50.991Z,22.80
2022-08-05T00:43:50.161Z,22.83
2022-08-05T00:44:49.978Z,22.81
2022-08-05T00:45:49.978Z,22.80
2022-08-05T00:46:54.139Z,22.72
2022-08-05T00:47:57.336Z,22.73
2022-08-05T00:48:51.482Z,22.66
2022-08-05T00:49:51.789Z,22.75
2022-08-05T00:50:50.004Z,22.73
2022-08-05T00:51:52.172Z,22.68
2022-08-05T00:52:49.926Z,22.63
2022-08-05T00:54:02.234Z,22.70
2022-08-05T00:54:50.902Z,22.59
2022-08-05T00:55:49.891Z,22.68
2022-08-05T00:56:51.769Z,22.66
2022-08-05T00:57:55.409Z,22.54
2022-08-05T00:58:50.863Z,22.54
2022-08-05T00:59:49.860Z,22.51
2022-08-05T01:00:49.845Z,22.47
2022-08-05T01:01:49.910Z,22.41
2022-08-05T01:02:50.205Z,22.43
2022-08-05T01:03:50.078Z,22.40
2022-08-05T01:04:50.394Z,22.33
2022-08-05T01:05:49.804Z,22.30
2022-08-05T01:06:51.744Z,22.30
2022-08-05T01:08:29.790Z,22.28
2022-08-05T01:08:50.773Z,22.25
2022-08-05T01:09:55.672Z,22.15
2022-08-05T01:10:52.278Z,22.17
2022-08-05T01:11:49.759Z,22.08
2022-08-05T01:13:05.366Z,22.17
2022-08-05T01:13:58.494Z,22.13
2022-08-05T01:14:50.736Z,22.17
2022-08-05T01:15:49.723Z,22.20
2022-08-05T01:16:49.716Z,22.25
2022-08-05T01:17:53.731Z,22.25
2022-08-05T01:18:56.200Z,22.30
2022-08-05T01:20:01.614Z,22.22
2022-08-05T01:20:50.715Z,22.23
2022-08-05T01:21:50.696Z,22.25
2022-08-05T01:22:49.730Z,22.17
2022-08-05T01:23:53.139Z,22.13
2022-08-05T01:24:49.644Z,22.20
2022-08-05T01:25:50.250Z,22.19
2022-08-05T01:26:49.631Z,22.14
2022-08-05T01:27:55.349Z,22.01
2022-08-05T01:28:50.621Z,22.15
2022-08-05T01:29:49.700Z,22.05
2022-08-05T01:30:53.905Z,22.11
2022-08-05T01:31:50.622Z,22.14
2022-08-05T01:32:49.589Z,22.15
2022-08-05T01:33:53.457Z,22.05
2022-08-05T01:34:49.671Z,22.08
2022-08-05T01:35:51.805Z,22.08
2022-08-05T01:36:49.589Z,22.11
2022-08-05T01:37:49.545Z,22.10
2022-08-05T01:38:49.871Z,22.07
2022-08-05T01:39:50.599Z,22.04
2022-08-05T01:40:49.516Z,22.04
2022-08-05T01:41:49.537Z,22.07
2022-08-05T01:42:49.499Z,22.01
2022-08-05T01:43:49.490Z,22.15
2022-08-05T01:44:54.253Z,22.13
2022-08-05T01:45:56.416Z,22.11
2022-08-05T01:46:50.505Z,22.07
2022-08-05T01:47:49.458Z,22.15
2022-08-05T01:48:50.453Z,22.35
2022-08-05T01:50:01.335Z,22.43
2022-08-05T01:50:51.335Z,22.53
2022-08-05T01:51:51.740Z,22.70
2022-08-05T01:52:49.704Z,22.73
2022-08-05T01:53:57.742Z,23.03
2022-08-05T01:54:52.842Z,23.17
2022-08-05T01:55:49.396Z,23.38
2022-08-05T01:58:11.967Z,23.61
2022-08-05T01:58:12.246Z,23.59
2022-08-05T01:58:50.831Z,23.70
2022-08-05T01:59:50.365Z,23.68
2022-08-05T02:00:49.348Z,23.66
2022-08-05T02:01:49.429Z,23.63
2022-08-05T02:02:54.293Z,23.62
2022-08-05T02:03:50.324Z,23.62
2022-08-05T02:04:49.659Z,23.73
2022-08-05T02:05:49.318Z,23.63
2022-08-05T02:06:49.326Z,23.70
2022-08-05T02:07:59.834Z,23.70
2022-08-05T02:08:58.164Z,23.68
2022-08-05T02:09:50.271Z,23.62
2022-08-05T02:10:49.279Z,23.59
2022-08-05T02:11:52.477Z,23.55
2022-08-05T02:12:50.980Z,23.53
2022-08-05T02:13:53.648Z,23.52
2022-08-05T02:14:49.240Z,23.44
2022-08-05T02:15:49.230Z,23.51
2022-08-05T02:16:52.313Z,23.52
2022-08-05T02:18:33.297Z,23.48
2022-08-05T02:18:50.197Z,23.46
2022-08-05T02:19:49.197Z,23.48
2022-08-05T02:20:49.343Z,23.47
2022-08-05T02:21:49.373Z,23.51
2022-08-05T02:22:49.164Z,23.44
2022-08-05T02:23:49.158Z,23.47
2022-08-05T02:24:51.328Z,23.44
2022-08-05T02:25:50.558Z,23.44
2022-08-05T02:26:54.567Z,23.51
2022-08-05T02:27:59.050Z,23.48
2022-08-05T02:28:50.127Z,23.43
2022-08-05T02:29:59.938Z,23.40
2022-08-05T02:30:51.640Z,23.38
2022-08-05T02:31:49.098Z,23.34
2022-08-05T02:32:49.110Z,23.24
2022-08-05T02:33:49.074Z,23.25
2022-08-05T02:34:54.516Z,23.17
2022-08-05T02:35:58.927Z,22.88
2022-08-05T02:36:50.053Z,22.68
2022-08-05T02:37:54.176Z,22.35
2022-08-05T02:38:52.963Z,22.13
2022-08-05T02:39:51.524Z,22.07
2022-08-05T02:40:49.025Z,22.01
2022-08-05T02:41:57.985Z,21.93
2022-08-05T02:42:52.709Z,21.96
2022-08-05T02:44:02.919Z,21.85
2022-08-05T02:44:49.981Z,21.84
2022-08-05T02:45:52.573Z,21.79
2022-08-05T02:46:53.817Z,21.72
2022-08-05T02:48:07.428Z,21.58
2022-08-05T02:48:49.963Z,21.40
2022-08-05T02:49:48.947Z,21.30
2022-08-05T02:50:48.932Z,21.14
2022-08-05T02:52:04.421Z,21.12
2022-08-05T02:52:49.931Z,21.11
2022-08-05T02:53:48.913Z,21.03
2022-08-05T02:54:51.160Z,20.97
2022-08-05T02:55:54.651Z,20.95
2022-08-05T02:56:49.923Z,20.93
2022-08-05T02:58:09.654Z,20.81
2022-08-05T02:58:51.239Z,20.81
2022-08-05T02:59:51.940Z,20.93
2022-08-05T03:00:48.857Z,20.96
2022-08-05T03:01:48.946Z,20.90
2022-08-05T03:02:48.842Z,20.82
2022-08-05T03:04:02.157Z,20.90
2022-08-05T03:04:53.241Z,20.78
2022-08-05T03:06:57.024Z,20.84
2022-08-05T03:06:59.480Z,20.89
2022-08-05T03:08:01.396Z,20.87
2022-08-05T03:08:52.047Z,20.85
2022-08-05T03:09:51.484Z,20.87
2022-08-05T03:11:53.129Z,20.90
2022-08-05T03:11:56.273Z,20.87
2022-08-05T03:12:51.813Z,20.90
2022-08-05T03:13:51.896Z,20.82
2022-08-05T03:14:50.732Z,20.90
2022-08-05T03:15:48.723Z,21.00
2022-08-05T03:16:48.751Z,20.92
2022-08-05T03:17:48.709Z,20.90
2022-08-05T03:18:49.697Z,20.96
2022-08-05T03:19:48.693Z,20.95
2022-08-05T03:20:49.073Z,20.84
2022-08-05T03:21:50.024Z,21.03
2022-08-05T03:22:50.503Z,20.99
2022-08-05T03:23:48.662Z,20.99
2022-08-05T03:24:51.099Z,21.00
2022-08-05T03:26:05.045Z,21.06
2022-08-05T03:26:49.661Z,21.05
2022-08-05T03:28:00.231Z,21.12
2022-08-05T03:28:49.618Z,20.96
2022-08-05T03:30:07.416Z,21.02
2022-08-05T03:30:49.613Z,20.99
2022-08-05T03:31:57.262Z,21.02
2022-08-05T03:32:49.591Z,21.12
2022-08-05T03:33:52.978Z,21.05
2022-08-05T03:34:50.996Z,21.10
2022-08-05T03:35:48.567Z,21.03
2022-08-05T03:36:48.601Z,21.05
2022-08-05T03:37:48.546Z,21.03
2022-08-05T03:38:53.258Z,21.06
2022-08-05T03:39:59.080Z,20.89
2022-08-05T03:40:49.591Z,20.95
2022-08-05T03:41:48.546Z,21.05
2022-08-05T03:42:52.203Z,21.12
2022-08-05T03:44:08.815Z,21.05
2022-08-05T03:44:49.483Z,21.03
2022-08-05T03:45:57.216Z,21.10
2022-08-05T03:46:49.495Z,21.05
2022-08-05T03:47:49.340Z,21.11
2022-08-05T03:48:48.516Z,21.05
2022-08-05T03:49:51.229Z,20.97
2022-08-05T03:50:48.437Z,20.95
2022-08-05T03:52:48.404Z,20.87
2022-08-05T03:55:34.061Z,20.90
2022-08-05T03:55:52.303Z,20.84
2022-08-05T03:55:53.871Z,20.84
2022-08-05T03:56:06.028Z,20.89
2022-08-05T03:56:50.095Z,20.95
2022-08-05T03:57:48.713Z,20.92
2022-08-05T03:58:48.382Z,20.92
2022-08-05T03:59:55.430Z,21.03
2022-08-05T04:00:51.539Z,21.10
2022-08-05T04:01:48.512Z,21.17
2022-08-05T04:02:57.975Z,21.10
2022-08-05T04:04:09.196Z,21.17
2022-08-05T04:04:49.317Z,21.21
2022-08-05T04:05:48.311Z,21.21
2022-08-05T04:06:51.404Z,21.30
2022-08-05T04:07:58.653Z,21.24
2022-08-05T04:08:49.290Z,21.27
2022-08-05T04:09:53.788Z,21.22
2022-08-05T04:10:49.271Z,21.24
2022-08-05T04:11:52.466Z,21.05
2022-08-05T04:12:48.286Z,21.14
2022-08-05T04:13:50.610Z,21.21
2022-08-05T04:14:49.236Z,21.26
2022-08-05T04:15:53.019Z,21.22
2022-08-05T04:16:49.217Z,21.30
2022-08-05T04:17:56.299Z,21.24
2022-08-05T04:18:54.509Z,21.26
2022-08-05T04:19:54.506Z,21.20
2022-08-05T04:20:49.180Z,21.08
2022-08-05T04:22:09.258Z,21.10
2022-08-05T04:22:49.197Z,21.03
2022-08-05T04:24:05.256Z,21.06
2022-08-05T04:24:52.707Z,21.05
2022-08-05T04:26:00.243Z,21.00
2022-08-05T04:26:49.140Z,21.06
2022-08-05T04:27:58.220Z,21.08
2022-08-05T04:28:51.349Z,21.08
2022-08-05T04:29:48.453Z,21.15
2022-08-05T04:30:48.174Z,21.03
2022-08-05T04:31:48.445Z,21.17
2022-08-05T04:32:48.118Z,21.15
2022-08-05T04:34:17.269Z,21.12
2022-08-05T04:34:49.066Z,21.17
2022-08-05T04:36:09.430Z,21.20
2022-08-05T04:36:50.216Z,21.21
2022-08-05T04:38:02.305Z,21.26
2022-08-05T04:38:51.118Z,21.22
2022-08-05T04:39:52.955Z,21.35
2022-08-05T04:40:50.773Z,21.30
2022-08-05T04:41:48.448Z,21.22
2022-08-05T04:42:48.035Z,21.17
2022-08-05T04:43:52.038Z,21.17
2022-08-05T04:44:48.979Z,21.20
2022-08-05T04:45:55.033Z,21.20
2022-08-05T04:46:48.965Z,21.21
2022-08-05T04:47:47.991Z,21.15
2022-08-05T04:48:47.944Z,21.21
2022-08-05T04:50:01.645Z,21.20
2022-08-05T04:51:03.264Z,21.20
2022-08-05T04:51:48.919Z,21.20
2022-08-05T04:52:48.942Z,21.20
2022-08-05T04:53:47.913Z,21.15
2022-08-05T04:54:49.449Z,21.20
2022-08-05T04:56:14.702Z,21.26
2022-08-05T04:56:48.885Z,21.24
2022-08-05T04:57:54.201Z,21.17
2022-08-05T04:58:48.865Z,21.14
2022-08-05T04:59:48.039Z,21.18
2022-08-05T05:00:50.851Z,21.21
2022-08-05T05:02:07.118Z,21.18
2022-08-05T05:02:48.929Z,21.22
2022-08-05T05:03:47.830Z,21.24
2022-08-05T05:04:50.505Z,21.14
2022-08-05T05:06:36.507Z,21.08
2022-08-05T05:06:49.201Z,21.08
2022-08-05T05:07:52.992Z,21.11
2022-08-05T05:08:50.189Z,21.12
2022-08-05T05:09:47.779Z,21.20
2022-08-05T05:10:55.920Z,21.24
2022-08-05T05:11:54.025Z,21.22
2022-08-05T05:12:48.773Z,21.21
2022-08-05T05:13:47.747Z,21.15
2022-08-05T05:14:49.385Z,21.17
2022-08-05T05:15:59.511Z,21.18
2022-08-05T05:16:48.714Z,21.26
2022-08-05T05:17:55.887Z,21.22
2022-08-05T05:19:16.430Z,21.32
2022-08-05T05:19:49.689Z,21.32
2022-08-05T05:20:47.681Z,21.35
2022-08-05T05:21:47.673Z,21.37
2022-08-05T05:22:47.669Z,21.40
2022-08-05T05:24:03.734Z,21.37
2022-08-05T05:24:58.035Z,21.40
2022-08-05T05:25:48.648Z,21.36
2022-08-05T05:26:47.976Z,21.42
2022-08-05T05:27:53.631Z,21.36
2022-08-05T05:28:48.647Z,21.26
2022-08-05T05:30:04.339Z,21.29
2022-08-05T05:30:49.569Z,21.24
2022-08-05T05:31:48.653Z,21.24
2022-08-05T05:32:47.597Z,21.39
2022-08-05T05:33:58.900Z,21.39
2022-08-05T05:34:48.566Z,21.26
2022-08-05T05:35:48.017Z,21.17
2022-08-05T05:36:47.559Z,21.22
2022-08-05T05:38:01.396Z,21.17
2022-08-05T05:38:48.569Z,21.20
2022-08-05T05:39:47.591Z,21.18
2022-08-05T05:40:51.205Z,21.17
2022-08-05T05:41:54.322Z,21.18
2022-08-05T05:42:48.505Z,21.15
2022-08-05T05:43:56.791Z,21.21
2022-08-05T05:44:48.483Z,21.26
2022-08-05T05:45:48.228Z,21.24
2022-08-05T05:46:47.779Z,21.22
2022-08-05T05:48:06.593Z,21.30
2022-08-05T05:48:49.012Z,21.27
2022-08-05T05:49:47.454Z,21.26
2022-08-05T05:50:48.435Z,21.30
2022-08-05T05:51:50.632Z,21.29
2022-08-05T05:52:47.425Z,21.29
2022-08-05T05:53:57.635Z,21.30
2022-08-05T05:54:50.224Z,21.29
2022-08-05T05:55:52.111Z,21.26
2022-08-05T05:56:48.392Z,21.35
2022-08-05T05:57:52.902Z,21.21
2022-08-05T05:58:48.398Z,21.21
2022-08-05T05:59:47.358Z,21.17
2022-08-05T06:00:47.353Z,21.32
2022-08-05T06:01:57.831Z,21.37
2022-08-05T06:02:48.347Z,21.45
2022-08-05T06:04:01.395Z,21.35
2022-08-05T06:04:49.343Z,21.40
2022-08-05T06:05:54.149Z,21.43
2022-08-05T06:06:49.047Z,21.36
2022-08-05T06:07:57.798Z,21.40
2022-08-05T06:08:49.395Z,21.36
2022-08-05T06:09:59.874Z,21.22
2022-08-05T06:10:49.190Z,21.21
2022-08-05T06:12:00.976Z,21.33
2022-08-05T06:12:48.249Z,21.36
2022-08-05T06:13:53.877Z,21.47
2022-08-05T06:14:48.236Z,21.43
2022-08-05T06:16:30.333Z,21.45
2022-08-05T06:16:48.213Z,21.54
2022-08-05T06:17:53.586Z,21.57
2022-08-05T06:18:48.240Z,21.52
2022-08-05T06:19:56.988Z,21.61
2022-08-05T06:20:48.189Z,21.65
2022-08-05T06:21:49.756Z,21.61
2022-08-05T06:22:48.171Z,21.72
2022-08-05T06:23:47.191Z,21.67
2022-08-05T06:24:48.158Z,21.70
2022-08-05T06:26:12.237Z,21.65
2022-08-05T06:26:51.571Z,21.66
2022-08-05T06:28:11.762Z,21.74
2022-08-05T06:28:48.148Z,21.70
2022-08-05T06:30:04.179Z,21.84
2022-08-05T06:30:49.189Z,21.73
2022-08-05T06:31:47.106Z,21.70
2022-08-05T06:32:47.100Z,21.70
2022-08-05T06:34:07.117Z,21.73
2022-08-05T06:34:48.074Z,21.69
2022-08-05T06:36:07.089Z,21.69
2022-08-05T06:36:57.702Z,21.72
2022-08-05T06:37:57.450Z,21.88
2022-08-05T06:38:48.068Z,21.90
2022-08-05T06:39:47.070Z,21.88
2022-08-05T06:40:47.022Z,21.81
2022-08-05T06:41:47.016Z,21.92
2022-08-05T06:42:47.009Z,21.92
2022-08-05T06:43:58.550Z,21.99
2022-08-05T06:44:49.291Z,21.98
2022-08-05T06:46:06.528Z,22.01
2022-08-05T06:46:47.973Z,22.10
2022-08-05T06:48:37.316Z,22.22
2022-08-05T06:48:55.503Z,22.59
2022-08-05T06:50:01.354Z,23.24
2022-08-05T06:50:47.934Z,24.10
2022-08-05T06:51:46.935Z,24.91
2022-08-05T06:52:58.617Z,25.70
2022-08-05T06:53:53.747Z,26.18
2022-08-05T06:54:52.051Z,26.37
2022-08-05T06:55:47.904Z,26.82
2022-08-05T06:56:54.905Z,26.89
2022-08-05T06:58:03.305Z,26.71
2022-08-05T06:58:47.865Z,26.55
2022-08-05T06:59:48.537Z,26.49
2022-08-05T07:00:47.867Z,26.22
2022-08-05T07:01:46.878Z,25.96
2022-08-05T07:02:47.840Z,25.62
2022-08-05T07:03:47.826Z,25.37
2022-08-05T07:04:46.858Z,25.04
2022-08-05T07:05:46.812Z,24.48
2022-08-05T07:06:46.805Z,24.33
2022-08-05T07:07:46.797Z,24.00
2022-08-05T07:08:47.187Z,24.05
2022-08-05T07:09:46.810Z,24.17
2022-08-05T07:10:52.586Z,24.54
2022-08-05T07:11:51.421Z,25.08
2022-08-05T07:12:49.133Z,25.58
2022-08-05T07:13:57.535Z,26.20
2022-08-05T07:14:47.763Z,26.25
2022-08-05T07:16:01.995Z,26.86
2022-08-05T07:17:58.981Z,27.46
2022-08-05T07:18:09.381Z,27.68
2022-08-05T07:18:48.026Z,27.77
2022-08-05T07:20:48.689Z,27.46
2022-08-05T07:22:00.886Z,27.32
2022-08-05T07:22:47.944Z,27.02
2022-08-05T07:23:49.179Z,26.68
2022-08-05T07:24:52.470Z,26.70
2022-08-05T07:25:55.016Z,26.25
2022-08-05T07:26:48.637Z,26.18
2022-08-05T07:27:58.799Z,26.26
2022-08-05T07:28:47.620Z,26.06
2022-08-05T07:30:22.802Z,26.10
2022-08-05T07:30:50.269Z,26.16
2022-08-05T07:31:54.715Z,26.16
2022-08-05T07:32:50.930Z,26.11
2022-08-05T07:33:47.577Z,26.06
2022-08-05T07:34:46.641Z,25.77
2022-08-05T07:36:04.783Z,25.67
2022-08-05T07:36:47.557Z,25.48
2022-08-05T07:37:47.317Z,25.14
2022-08-05T07:38:46.550Z,24.93
2022-08-05T07:40:26.305Z,25.03
2022-08-05T07:40:47.575Z,25.03
2022-08-05T07:42:08.032Z,25.07
2022-08-05T07:42:47.513Z,25.00
2022-08-05T07:43:46.504Z,24.96
2022-08-05T07:44:46.529Z,24.96
2022-08-05T07:45:57.395Z,25.30
2022-08-05T07:46:48.390Z,25.70
2022-08-05T07:47:46.474Z,26.25
2022-08-05T07:49:01.797Z,26.50
2022-08-05T07:49:54.678Z,26.93
2022-08-05T07:50:47.444Z,27.02
2022-08-05T07:51:53.877Z,27.04
2022-08-05T07:52:47.420Z,26.60
2022-08-05T07:53:50.507Z,26.37
2022-08-05T07:54:49.126Z,26.10
2022-08-05T07:56:06.453Z,25.95
2022-08-05T07:57:01.827Z,25.56
2022-08-05T07:57:57.509Z,25.35
2022-08-05T07:58:54.776Z,25.30
2022-08-05T07:59:49.007Z,25.25
2022-08-05T08:00:46.405Z,25.18
2022-08-05T08:01:52.292Z,25.06
2022-08-05T08:03:15.420Z,25.00
2022-08-05T08:03:47.372Z,24.93
2022-08-05T08:04:46.367Z,24.91
2022-08-05T08:05:49.811Z,24.96
2022-08-05T08:06:47.312Z,24.98
2022-08-05T08:07:58.863Z,24.74
2022-08-05T08:08:47.307Z,24.70
2022-08-05T08:09:46.318Z,24.65
2022-08-05T08:10:48.693Z,24.47
2022-08-05T08:11:49.467Z,24.25
2022-08-05T08:12:48.681Z,24.36
2022-08-05T08:14:00.892Z,24.33
2022-08-05T08:14:47.292Z,24.33
2022-08-05T08:16:49.761Z,24.51
2022-08-05T08:16:51.452Z,24.62
2022-08-05T08:17:52.489Z,24.89
2022-08-05T08:18:49.913Z,25.01
2022-08-05T08:20:43.642Z,25.51
2022-08-05T08:21:03.001Z,25.41
2022-08-05T08:21:47.186Z,25.50
2022-08-05T08:22:46.176Z,25.58
2022-08-05T08:24:01.768Z,25.56
2022-08-05T08:24:51.359Z,25.53
2022-08-05T08:26:00.457Z,25.66
2022-08-05T08:26:47.143Z,25.65
2022-08-05T08:27:47.771Z,25.37
2022-08-05T08:28:58.928Z,25.08
2022-08-05T08:30:05.897Z,25.15
2022-08-05T08:30:47.855Z,25.26
2022-08-05T08:31:46.111Z,25.53
2022-08-05T08:32:46.102Z,25.44
2022-08-05T08:33:46.091Z,25.32
2022-08-05T08:34:47.138Z,25.04
2022-08-05T08:35:53.112Z,25.01
2022-08-05T08:36:52.618Z,25.22
2022-08-05T08:37:47.066Z,25.33
2022-08-05T08:38:53.254Z,25.47
2022-08-05T08:39:49.550Z,25.35
2022-08-05T08:40:51.548Z,25.50
2022-08-05T08:41:51.737Z,25.48
2022-08-05T08:42:52.377Z,25.78
2022-08-05T08:45:16.542Z,25.74
2022-08-05T08:45:22.763Z,25.80
2022-08-05T08:45:46.988Z,25.92
2022-08-05T08:46:45.983Z,25.92
2022-08-05T08:48:05.917Z,25.92
2022-08-05T08:49:06.238Z,25.85
2022-08-05T08:50:06.103Z,25.63
2022-08-05T08:51:03.411Z,25.75
2022-08-05T08:52:05.887Z,25.81
2022-08-05T08:52:51.387Z,25.92
2022-08-05T08:53:46.019Z,26.18
2022-08-05T08:54:46.045Z,26.12
2022-08-05T08:56:03.605Z,26.22
2022-08-05T08:56:47.632Z,26.30
2022-08-05T08:57:57.863Z,26.28
2022-08-05T08:58:48.705Z,26.77
2022-08-05T08:59:47.171Z,27.34
2022-08-05T09:00:45.986Z,27.55
2022-08-05T09:01:45.862Z,27.46
2022-08-05T09:02:46.861Z,28.02
2022-08-05T09:03:45.851Z,28.51
2022-08-05T09:04:58.250Z,29.17
2022-08-05T09:06:08.603Z,28.64
2022-08-05T09:06:46.815Z,28.88
2022-08-05T09:07:57.506Z,29.68
2022-08-05T09:08:46.830Z,29.83
2022-08-05T09:09:45.830Z,30.05
2022-08-05T09:10:46.734Z,29.42
2022-08-05T09:11:52.860Z,28.85
2022-08-05T09:12:51.056Z,28.64
2022-08-05T09:14:00.803Z,28.45
2022-08-05T09:14:57.153Z,28.61
2022-08-05T09:15:46.753Z,28.57
2022-08-05T09:16:49.026Z,28.78
2022-08-05T09:17:49.565Z,29.09
2022-08-05T09:18:45.729Z,29.10
2022-08-05T09:20:01.420Z,28.78
2022-08-05T09:20:46.716Z,28.49
2022-08-05T09:22:21.999Z,28.46
2022-08-05T09:22:51.790Z,28.09
2022-08-05T09:23:46.696Z,27.87
2022-08-05T09:24:45.730Z,27.74
2022-08-05T09:26:03.069Z,27.55
2022-08-05T09:26:46.674Z,27.61
2022-08-05T09:28:04.890Z,27.36
2022-08-05T09:28:46.665Z,26.78
2022-08-05T09:29:47.935Z,26.81
2022-08-05T09:30:45.646Z,26.75
2022-08-05T09:32:41.483Z,26.70
2022-08-05T09:32:46.988Z,26.74
2022-08-05T09:33:45.620Z,26.82
2022-08-05T09:34:45.649Z,26.78
2022-08-05T09:35:45.614Z,27.18
2022-08-05T09:36:56.173Z,27.52
2022-08-05T09:38:16.459Z,27.75
2022-08-05T09:38:46.581Z,27.79
2022-08-05T09:39:55.889Z,28.01
2022-08-05T09:40:52.501Z,28.01
2022-08-05T09:41:46.574Z,28.24
2022-08-05T09:42:48.404Z,27.86
2022-08-05T09:43:45.549Z,27.65
2022-08-05T09:44:45.533Z,27.34
2022-08-05T09:46:06.857Z,27.24
2022-08-05T09:46:51.711Z,27.27
2022-08-05T09:47:55.588Z,27.72
2022-08-05T09:49:06.521Z,27.99
2022-08-05T09:50:01.281Z,28.61
2022-08-05T09:50:46.510Z,28.58
2022-08-05T09:51:49.677Z,28.27
2022-08-05T09:52:45.472Z,28.48
2022-08-05T09:53:54.805Z,28.45
2022-08-05T09:54:46.456Z,28.39
2022-08-05T09:55:57.261Z,28.19
2022-08-05T09:56:52.320Z,27.98
2022-08-05T09:57:46.427Z,27.82
2022-08-05T09:58:45.425Z,27.72
2022-08-05T09:59:45.415Z,27.83
2022-08-05T10:00:45.439Z,27.85
2022-08-05T10:01:45.765Z,27.51
2022-08-05T10:02:45.442Z,27.44
2022-08-05T10:03:58.936Z,27.48
2022-08-05T10:04:46.378Z,27.18
2022-08-05T10:05:45.397Z,27.27
2022-08-05T10:06:49.808Z,27.32
2022-08-05T10:08:36.482Z,27.32
2022-08-05T10:08:53.765Z,27.49
2022-08-05T10:09:46.333Z,28.04
2022-08-05T10:10:48.269Z,28.38
2022-08-05T10:11:45.468Z,27.92
2022-08-05T10:12:49.716Z,27.80
2022-08-05T10:13:48.247Z,27.83
2022-08-05T10:14:45.296Z,27.62
2022-08-05T10:15:45.319Z,27.52
2022-08-05T10:16:52.857Z,27.65
2022-08-05T10:17:56.846Z,27.75
2022-08-05T10:18:48.213Z,28.04
2022-08-05T10:20:04.503Z,28.22
2022-08-05T10:20:48.341Z,28.14
2022-08-05T10:21:45.278Z,28.07
2022-08-05T10:22:50.957Z,27.95
2022-08-05T10:23:55.393Z,27.98
2022-08-05T10:24:46.221Z,28.09
2022-08-05T10:25:45.240Z,27.79
2022-08-05T10:26:51.459Z,27.68
2022-08-05T10:28:13.080Z,27.74
2022-08-05T10:28:46.590Z,27.62
2022-08-05T10:30:06.719Z,27.26
2022-08-05T10:32:50.750Z,26.82
2022-08-05T10:32:52.647Z,26.74
2022-08-05T10:32:54.860Z,26.87
2022-08-05T10:33:46.160Z,26.78
2022-08-05T10:34:46.177Z,26.95
2022-08-05T10:35:48.439Z,27.12
2022-08-05T10:36:46.121Z,27.05
2022-08-05T10:37:45.311Z,27.29
2022-08-05T10:38:45.162Z,27.58
2022-08-05T10:40:03.946Z,27.71
2022-08-05T10:40:46.140Z,28.30
2022-08-05T10:41:47.159Z,28.53
2022-08-05T10:42:45.080Z,29.04
2022-08-05T10:43:45.076Z,29.29
2022-08-05T10:44:45.087Z,29.83
2022-08-05T10:45:45.067Z,29.90
2022-08-05T10:46:45.047Z,29.95
2022-08-05T10:47:56.103Z,30.25
2022-08-05T10:48:58.063Z,30.20
2022-08-05T10:49:48.803Z,30.21
2022-08-05T10:50:45.025Z,30.20
2022-08-05T10:51:53.168Z,29.60
2022-08-05T10:52:49.548Z,29.25
2022-08-05T10:53:45.302Z,29.16
2022-08-05T10:54:47.098Z,29.19
2022-08-05T10:56:05.404Z,29.28
2022-08-05T10:56:45.961Z,29.13
2022-08-05T10:57:44.958Z,28.86
2022-08-05T10:58:48.705Z,28.67
2022-08-05T11:00:03.101Z,28.86
2022-08-05T11:00:45.965Z,29.17
2022-08-05T11:01:54.899Z,28.79
2022-08-05T11:02:50.503Z,29.11
2022-08-05T11:03:45.981Z,29.19
2022-08-05T11:04:44.909Z,28.97
2022-08-05T11:05:44.923Z,28.94
2022-08-05T11:06:44.889Z,28.46
2022-08-05T11:08:01.760Z,28.83
2022-08-05T11:08:45.873Z,29.26
2022-08-05T11:09:46.130Z,29.14
2022-08-05T11:10:50.208Z,29.53
2022-08-05T11:11:52.860Z,29.54
2022-08-05T11:12:54.199Z,29.72
2022-08-05T11:13:57.587Z,29.73
2022-08-05T11:15:19.427Z,29.75
2022-08-05T11:16:00.778Z,29.73
2022-08-05T11:16:56.095Z,29.65
2022-08-05T11:18:09.828Z,29.69
2022-08-05T11:18:46.958Z,29.92
2022-08-05T11:20:10.251Z,29.99
2022-08-05T11:20:45.815Z,29.73
2022-08-05T11:21:48.851Z,29.72
2022-08-05T11:22:44.762Z,29.41
2022-08-05T11:24:04.102Z,29.63
2022-08-05T11:24:50.572Z,29.84
2022-08-05T11:26:05.499Z,29.76
2022-08-05T11:26:49.772Z,29.19
2022-08-05T11:27:51.784Z,29.31
2022-08-05T11:28:45.728Z,29.32
2022-08-05T11:29:44.718Z,29.33
2022-08-05T11:30:44.734Z,29.16
2022-08-05T11:31:57.686Z,29.01
2022-08-05T11:32:47.794Z,29.05
2022-08-05T11:33:47.964Z,28.61
2022-08-05T11:34:51.920Z,28.67
2022-08-05T11:36:07.615Z,28.26
2022-08-05T11:36:45.659Z,28.54
2022-08-05T11:38:29.278Z,28.75
2022-08-05T11:38:51.235Z,29.02
2022-08-05T11:39:48.003Z,28.97
2022-08-05T11:40:44.628Z,28.76
2022-08-05T11:42:01.264Z,28.86
2022-08-05T11:42:45.612Z,28.86
2022-08-05T11:44:04.787Z,28.97
2022-08-05T11:44:54.027Z,29.02
2022-08-05T11:46:27.214Z,29.11
2022-08-05T11:46:58.451Z,29.07
2022-08-05T11:47:48.961Z,28.71
2022-08-05T11:48:44.565Z,28.63
2022-08-05T11:49:49.542Z,28.71
2022-08-05T11:50:45.550Z,28.91
2022-08-05T11:51:49.735Z,28.86
2022-08-05T11:52:46.157Z,28.95
2022-08-05T11:53:44.524Z,29.07
2022-08-05T11:54:48.375Z,29.04
2022-08-05T11:55:45.506Z,29.04
2022-08-05T11:56:44.532Z,28.97
2022-08-05T11:58:09.811Z,29.05
2022-08-05T11:58:52.830Z,28.81
2022-08-05T11:59:49.686Z,28.95
2022-08-05T12:00:46.981Z,29.17
2022-08-05T12:01:45.480Z,29.21
2022-08-05T12:02:45.480Z,29.21
2022-08-05T12:03:44.447Z,29.33
2022-08-05T12:04:45.437Z,29.38
2022-08-05T12:05:45.435Z,29.14
2022-08-05T12:06:48.925Z,29.05
2022-08-05T12:08:03.577Z,29.28
2022-08-05T12:08:49.926Z,29.41
2022-08-05T12:09:53.299Z,29.39
2022-08-05T12:10:46.534Z,29.23
2022-08-05T12:11:44.414Z,29.35
2022-08-05T12:12:46.647Z,29.29
2022-08-05T12:13:49.084Z,29.16
2022-08-05T12:14:47.281Z,29.01
2022-08-05T12:15:44.357Z,28.91
2022-08-05T12:16:45.378Z,29.01
2022-08-05T12:18:02.533Z,29.10
2022-08-05T12:18:48.650Z,29.01
2022-08-05T12:20:16.963Z,29.04
2022-08-05T12:20:45.308Z,28.71
2022-08-05T12:21:44.337Z,28.57
2022-08-05T12:22:46.126Z,28.36
2022-08-05T12:23:44.289Z,28.04
2022-08-05T12:24:49.466Z,27.99
2022-08-05T12:25:45.270Z,27.80
2022-08-05T12:26:44.519Z,27.60
2022-08-05T12:27:53.191Z,27.54
2022-08-05T12:28:45.253Z,27.48
2022-08-05T12:29:44.245Z,27.34
2022-08-05T12:30:45.829Z,27.30
2022-08-05T12:31:49.960Z,27.23
2022-08-05T12:32:46.225Z,27.27
2022-08-05T12:33:44.214Z,27.14
2022-08-05T12:34:44.212Z,27.14
2022-08-05T12:35:44.196Z,27.15
2022-08-05T12:36:44.286Z,27.33
2022-08-05T12:37:44.191Z,27.37
2022-08-05T12:38:44.184Z,27.36
2022-08-05T12:39:44.237Z,27.37
2022-08-05T12:40:44.356Z,27.36
2022-08-05T12:41:44.181Z,27.36
2022-08-05T12:42:44.150Z,27.58
2022-08-05T12:43:44.135Z,27.70
2022-08-05T12:44:44.134Z,27.72
2022-08-05T12:45:49.766Z,27.82
2022-08-05T12:46:45.643Z,27.72
2022-08-05T12:48:17.536Z,27.80
2022-08-05T12:48:45.094Z,27.86
2022-08-05T12:50:03.165Z,27.87
2022-08-05T12:50:45.085Z,28.12
2022-08-05T12:52:14.355Z,28.41
2022-08-05T12:52:45.066Z,28.57
2022-08-05T12:53:44.065Z,28.72